Time;durP1;ratioP1;P1;durP2;ratioP2;P2;SDS_P1;SDS_P2;PMS_P1;PMS_P2;Temp;Humidity;BMP_temperature;BMP_pressure;BME280_temperature;BME280_humidity;BME280_pressure;Samples;Min_cycle;Max_cycle;Signal;HPM_P1;HPM_P2
2023/10/03 06:52:52;;;;;;;4.00;2.10;;;19.40;99.90;;;;;;5081561;23;20232;-73
2023/10/03 06:55:20;;;;;;;7.32;2.17;;;19.40;99.90;;;;;;4991643;28;20210;-68
2023/10/03 06:57:47;;;;;;;4.55;2.20;;;19.40;99.90;;;;;;4994133;28;20265;-69
2023/10/03 07:00:16;;;;;;;4.32;2.10;;;19.40;99.90;;;;;;4993857;28;20261;-69
2023/10/03 07:02:44;;;;;;;4.95;2.17;;;19.40;99.90;;;;;;4993705;28;20211;-69
2023/10/03 07:05:12;;;;;;;6.40;1.63;;;19.40;99.90;;;;;;4994069;28;20666;-69
2023/10/03 07:07:40;;;;;;;5.28;1.95;;;19.40;99.90;;;;;;4993737;28;20269;-68
2023/10/03 07:10:09;;;;;;;6.50;2.28;;;19.40;99.90;;;;;;4993881;28;20226;-69
2023/10/03 07:12:38;;;;;;;5.90;2.40;;;19.50;99.90;;;;;;4993662;28;20206;-69
2023/10/03 07:15:08;;;;;;;3.10;1.92;;;19.50;99.90;;;;;;4993319;28;20689;-74
2023/10/03 07:17:36;;;;;;;4.68;1.88;;;19.50;99.90;;;;;;4993618;28;20217;-70
2023/10/03 07:20:05;;;;;;;5.15;2.20;;;19.50;99.90;;;;;;4993748;28;20226;-69
2023/10/03 07:22:32;;;;;;;3.97;1.65;;;19.60;99.90;;;;;;4994027;28;20238;-68
2023/10/03 07:24:59;;;;;;;3.47;1.90;;;19.50;99.90;;;;;;4993799;28;20234;-69
2023/10/03 07:27:26;;;;;;;4.32;1.80;;;19.50;99.90;;;;;;4993915;28;20741;-69
2023/10/03 07:29:54;;;;;;;3.28;1.63;;;19.50;99.90;;;;;;4993558;28;20318;-68
2023/10/03 07:32:21;;;;;;;4.55;1.98;;;19.50;99.90;;;;;;4993362;28;20634;-69
2023/10/03 07:34:49;;;;;;;3.90;1.65;;;19.60;99.90;;;;;;4993791;28;20318;-69
2023/10/03 07:37:17;;;;;;;2.58;1.85;;;19.70;99.90;;;;;;4994009;28;20293;-71
2023/10/03 07:39:44;;;;;;;4.15;1.70;;;19.70;99.90;;;;;;4993633;28;20233;-70
2023/10/03 07:42:14;;;;;;;6.15;1.70;;;19.70;99.90;;;;;;4993431;28;20214;-69
2023/10/03 07:44:41;;;;;;;7.35;2.33;;;19.70;99.90;;;;;;4993566;28;20238;-74
2023/10/03 07:47:10;;;;;;;4.18;2.47;;;19.70;99.90;;;;;;4993774;28;20233;-69
2023/10/03 07:49:41;;;;;;;3.08;1.70;;;19.70;99.90;;;;;;4993647;28;20233;-69
2023/10/03 07:52:09;;;;;;;4.15;1.73;;;19.70;99.90;;;;;;4993783;28;20242;-69
2023/10/03 07:54:37;;;;;;;5.60;2.00;;;19.60;99.90;;;;;;4993374;28;20238;-72
2023/10/03 07:57:05;;;;;;;3.17;1.42;;;19.70;99.90;;;;;;4993424;28;20221;-67
2023/10/03 07:59:32;;;;;;;3.45;1.70;;;19.70;99.90;;;;;;4993501;28;20230;-69
2023/10/03 08:02:04;;;;;;;2.45;1.63;;;19.80;99.90;;;;;;4993473;28;20241;-68
2023/10/03 08:04:33;;;;;;;3.70;1.80;;;19.80;99.90;;;;;;4993152;28;20241;-69
2023/10/03 08:07:00;;;;;;;4.03;1.67;;;19.70;99.90;;;;;;4992773;28;20750;-69
2023/10/03 08:09:27;;;;;;;6.05;1.90;;;19.70;99.90;;;;;;4992857;28;20237;-69
2023/10/03 08:11:53;;;;;;;3.75;1.70;;;19.70;99.90;;;;;;4993030;28;20244;-69
2023/10/03 08:14:20;;;;;;;3.65;2.08;;;19.70;99.90;;;;;;4993097;28;20289;-74
2023/10/03 08:16:48;;;;;;;3.40;1.90;;;19.80;99.90;;;;;;4997600;28;20253;-70
2023/10/03 08:19:21;;;;;;;3.88;1.73;;;19.80;99.90;;;;;;4997133;28;20233;-69
2023/10/03 08:21:49;;;;;;;2.60;1.48;;;19.70;99.90;;;;;;4996811;28;20265;-70
2023/10/03 08:24:19;;;;;;;2.95;1.30;;;19.80;99.90;;;;;;4996627;28;20277;-68
2023/10/03 08:26:46;;;;;;;4.85;1.67;;;19.90;99.90;;;;;;4996823;28;20206;-69
2023/10/03 08:29:21;;;;;;;5.05;1.95;;;20.00;99.90;;;;;;4996460;28;20208;-68
2023/10/03 08:31:49;;;;;;;2.38;1.60;;;20.00;99.90;;;;;;4996623;28;20206;-74
2023/10/03 08:34:17;;;;;;;2.45;1.50;;;20.10;99.90;;;;;;4997045;28;20210;-73
2023/10/03 08:36:44;;;;;;;8.35;2.00;;;20.00;99.90;;;;;;4996511;28;20214;-70
2023/10/03 08:39:13;;;;;;;3.38;1.48;;;20.00;99.90;;;;;;4996515;28;20238;-70
2023/10/03 08:41:47;;;;;;;4.90;1.50;;;19.80;99.90;;;;;;4996702;28;20207;-70
2023/10/03 08:44:14;;;;;;;3.67;1.23;;;19.40;99.90;;;;;;4996558;28;20324;-69
2023/10/03 08:46:46;;;;;;;3.45;1.15;;;19.20;99.90;;;;;;4996682;28;20211;-69
2023/10/03 08:49:17;;;;;;;5.00;0.93;;;18.90;99.90;;;;;;4996766;28;20635;-68
2023/10/03 08:51:45;;;;;;;2.25;0.90;;;18.90;99.90;;;;;;4996653;28;20214;-69
2023/10/03 08:54:14;;;;;;;3.13;0.80;;;18.80;99.90;;;;;;4996476;28;20310;-70
2023/10/03 08:56:42;;;;;;;2.88;0.60;;;18.70;99.90;;;;;;4996484;28;20289;-69
2023/10/03 08:59:09;;;;;;;1.90;0.60;;;18.70;99.90;;;;;;4996638;28;20207;-70
2023/10/03 09:01:39;;;;;;;0.85;0.52;;;18.70;99.90;;;;;;4996139;28;20206;-70
2023/10/03 09:04:15;;;;;;;4.10;0.40;;;18.50;99.90;;;;;;4996175;28;20273;-68
2023/10/03 09:06:43;;;;;;;0.70;0.50;;;18.50;99.90;;;;;;4996101;28;20297;-68
2023/10/03 09:09:13;;;;;;;1.25;0.63;;;18.50;99.90;;;;;;4995915;28;20245;-69
2023/10/03 09:11:43;;;;;;;1.45;0.55;;;18.50;99.90;;;;;;4996206;28;20241;-68
2023/10/03 09:14:14;;;;;;;1.80;0.50;;;18.50;99.90;;;;;;4996076;28;20250;-68
2023/10/03 09:16:50;;;;;;;1.10;0.45;;;18.60;99.90;;;;;;4996097;28;20994;-68
2023/10/03 09:19:23;;;;;;;3.67;0.70;;;18.70;99.90;;;;;;4995783;28;20206;-69
2023/10/03 09:21:51;;;;;;;2.45;0.55;;;18.80;99.90;;;;;;4995915;28;20293;-69
2023/10/03 09:24:21;;;;;;;1.38;0.50;;;18.90;99.90;;;;;;4995579;28;20321;-69
2023/10/03 09:26:51;;;;;;;1.35;0.43;;;19.10;99.90;;;;;;4995779;28;20210;-70
2023/10/03 09:29:29;;;;;;;1.75;0.52;;;19.10;99.90;;;;;;4995830;28;20210;-69
2023/10/03 09:31:58;;;;;;;0.50;0.30;;;19.10;99.90;;;;;;4995644;28;20515;-74
2023/10/03 09:34:30;;;;;;;1.17;0.52;;;19.10;99.90;;;;;;4995441;28;20214;-69
2023/10/03 09:36:58;;;;;;;2.78;0.70;;;19.10;99.90;;;;;;4990479;28;20221;-72
2023/10/03 09:39:26;;;;;;;1.90;0.50;;;19.00;99.90;;;;;;4986576;28;20208;-70
2023/10/03 09:41:55;;;;;;;1.95;0.40;;;19.10;99.90;;;;;;4992016;28;20203;-72
2023/10/03 09:44:29;;;;;;;2.70;0.47;;;19.20;99.90;;;;;;4990154;28;20226;-70
2023/10/03 09:47:04;;;;;;;2.15;0.30;;;19.30;99.90;;;;;;4992851;28;20202;-72
2023/10/03 09:49:36;;;;;;;1.02;0.40;;;19.30;99.90;;;;;;4991600;28;20244;-72
2023/10/03 09:52:09;;;;;;;1.25;0.50;;;19.10;99.90;;;;;;4990739;28;20195;-70
2023/10/03 09:54:36;;;;;;;0.63;0.30;;;19.00;99.90;;;;;;4992974;28;20199;-70
2023/10/03 09:57:16;;;;;;;0.70;0.45;;;18.80;99.90;;;;;;4993659;28;20245;-71
2023/10/03 09:59:46;;;;;;;2.60;0.43;;;18.70;99.90;;;;;;4993631;28;20230;-70
2023/10/03 10:02:14;;;;;;;1.15;0.30;;;18.70;99.90;;;;;;4993744;28;20264;-71
2023/10/03 10:04:43;;;;;;;1.08;0.30;;;18.80;99.90;;;;;;4993772;28;20230;-70
2023/10/03 10:07:16;;;;;;;2.53;0.60;;;18.80;99.90;;;;;;4992434;28;20234;-71
2023/10/03 10:09:59;;;;;;;1.17;0.30;;;18.70;99.90;;;;;;4992809;28;20230;-72
2023/10/03 10:12:28;;;;;;;0.98;0.38;;;18.70;99.90;;;;;;4991052;28;20214;-69
2023/10/03 10:15:14;;;;;;;0.22;0.20;;;18.60;99.90;;;;;;4993209;28;20667;-74
2023/10/03 10:17:45;;;;;;;0.30;0.20;;;18.70;99.90;;;;;;4993207;28;20301;-70
2023/10/03 10:20:13;;;;;;;1.05;0.30;;;18.60;99.90;;;;;;4992707;28;20237;-73
2023/10/03 10:23:17;;;;;;;0.80;0.20;;;18.60;99.90;;;;;;4991525;28;20206;-73
2023/10/03 10:25:57;;;;;;;0.70;0.30;;;18.50;99.90;;;;;;4990560;28;20226;-74
2023/10/03 10:28:34;;;;;;;1.05;0.30;;;18.50;99.90;;;;;;4991088;28;20214;-73
2023/10/03 10:31:22;;;;;;;0.55;0.20;;;18.50;99.90;;;;;;4990976;28;20260;-73
2023/10/03 10:33:50;;;;;;;0.30;0.20;;;18.60;99.90;;;;;;4991364;28;20685;-72
2023/10/03 10:36:18;;;;;;;2.42;0.25;;;18.80;99.90;;;;;;4991837;28;20213;-71
2023/10/03 10:38:53;;;;;;;0.63;0.30;;;18.90;99.90;;;;;;4992124;28;20277;-71
2023/10/03 10:41:27;;;;;;;0.85;0.40;;;18.90;99.90;;;;;;4991464;28;20309;-71
2023/10/03 10:44:09;;;;;;;0.80;0.30;;;19.20;99.90;;;;;;4999543;28;20201;-70
2023/10/03 10:46:39;;;;;;;0.50;0.40;;;19.40;99.90;;;;;;5010859;28;20205;-71
2023/10/03 10:49:27;;;;;;;0.20;0.20;;;19.30;99.90;;;;;;4993709;28;20211;-71
2023/10/03 10:51:57;;;;;;;2.45;0.40;;;19.20;99.90;;;;;;4992619;28;20619;-70
2023/10/03 10:54:25;;;;;;;1.00;0.40;;;19.20;99.90;;;;;;4992355;28;20256;-71
2023/10/03 10:56:59;;;;;;;2.90;0.52;;;19.20;99.90;;;;;;4992403;28;20286;-71
2023/10/03 10:59:27;;;;;;;3.30;0.50;;;19.50;99.90;;;;;;4992497;28;20209;-69
2023/10/03 11:01:54;;;;;;;2.28;0.40;;;19.60;99.90;;;;;;4992886;28;20643;-71
2023/10/03 11:04:25;;;;;;;1.85;0.63;;;19.70;99.90;;;;;;4992418;28;20206;-71
2023/10/03 11:06:53;;;;;;;1.95;0.57;;;19.50;99.90;;;;;;4992050;28;20237;-70
2023/10/03 11:09:23;;;;;;;2.50;0.70;;;19.40;99.90;;;;;;4992016;28;20297;-70
2023/10/03 11:11:51;;;;;;;2.22;0.50;;;19.40;99.90;;;;;;4991629;28;20207;-72
2023/10/03 11:14:26;;;;;;;1.75;0.50;;;19.30;99.90;;;;;;4991891;28;20213;-70
2023/10/03 11:16:53;;;;;;;1.00;0.50;;;19.30;99.90;;;;;;4991855;28;20220;-70
2023/10/03 11:19:20;;;;;;;0.52;0.40;;;19.30;99.90;;;;;;4991890;28;20302;-69
2023/10/03 11:21:47;;;;;;;2.45;0.57;;;19.20;99.90;;;;;;4992676;28;20324;-73
2023/10/03 11:24:15;;;;;;;1.30;0.70;;;19.20;99.90;;;;;;4992016;28;20286;-70
2023/10/03 11:26:45;;;;;;;1.10;0.50;;;19.10;99.90;;;;;;4991788;28;20206;-70
2023/10/03 11:29:14;;;;;;;1.40;0.60;;;19.20;99.90;;;;;;4998241;28;20624;-71
2023/10/03 11:31:42;;;;;;;2.40;0.50;;;19.30;99.90;;;;;;5011427;28;20724;-71
2023/10/03 11:34:09;;;;;;;1.60;0.50;;;19.40;99.90;;;;;;4994391;28;20217;-77
2023/10/03 11:36:43;;;;;;;1.63;0.50;;;19.50;99.90;;;;;;4992107;28;20292;-72
2023/10/03 11:39:12;;;;;;;0.77;0.43;;;19.60;99.90;;;;;;4992266;28;20309;-72
2023/10/03 11:41:40;;;;;;;1.13;0.52;;;19.60;99.90;;;;;;4992382;28;20234;-72
2023/10/03 11:44:20;;;;;;;0.57;0.30;;;19.30;99.90;;;;;;4991567;28;20202;-72
2023/10/03 11:46:47;;;;;;;1.77;0.60;;;19.20;99.90;;;;;;4991903;28;20754;-72
2023/10/03 11:49:15;;;;;;;0.70;0.40;;;18.90;99.90;;;;;;4996379;28;20229;-72
2023/10/03 11:51:43;;;;;;;0.73;0.40;;;18.70;99.90;;;;;;4998637;28;20214;-72
2023/10/03 11:54:10;;;;;;;1.73;0.40;;;18.70;99.90;;;;;;4998635;28;20218;-71
2023/10/03 11:56:42;;;;;;;1.23;0.50;;;18.80;99.90;;;;;;4998172;28;20276;-70
2023/10/03 11:59:09;;;;;;;0.90;0.55;;;18.90;99.90;;;;;;4998122;28;20233;-71
2023/10/03 12:01:37;;;;;;;2.08;0.70;;;19.00;99.90;;;;;;4998023;28;20293;-71
2023/10/03 12:04:04;;;;;;;2.58;0.73;;;18.90;99.90;;;;;;4998074;28;20734;-72
2023/10/03 12:06:33;;;;;;;2.70;0.60;;;18.90;99.90;;;;;;4997924;28;20333;-73
2023/10/03 12:09:00;;;;;;;0.80;0.40;;;18.80;99.90;;;;;;4998093;28;20297;-71
2023/10/03 12:11:27;;;;;;;1.40;0.55;;;18.60;99.90;;;;;;4998510;28;20277;-70
2023/10/03 12:13:54;;;;;;;2.15;0.60;;;18.50;99.90;;;;;;4998531;28;20244;-72
2023/10/03 12:16:22;;;;;;;1.73;0.57;;;18.50;99.90;;;;;;4997871;28;20218;-70
2023/10/03 12:18:50;;;;;;;1.00;0.60;;;18.60;99.90;;;;;;4998121;28;20578;-71
2023/10/03 12:21:17;;;;;;;0.75;0.60;;;18.60;99.90;;;;;;4998209;28;20321;-71
2023/10/03 12:23:45;;;;;;;1.67;0.60;;;18.70;99.90;;;;;;4997917;28;20248;-71
2023/10/03 12:26:12;;;;;;;1.52;0.50;;;18.80;99.90;;;;;;5013149;28;20315;-69
2023/10/03 12:28:39;;;;;;;2.13;0.60;;;19.00;99.90;;;;;;4997551;28;20242;-70
2023/10/03 12:31:06;;;;;;;2.47;0.70;;;19.00;99.90;;;;;;4995249;28;20316;-69
2023/10/03 12:33:33;;;;;;;0.75;0.50;;;18.80;99.90;;;;;;4996678;28;20297;-73
2023/10/03 12:36:04;;;;;;;1.23;0.70;;;18.60;99.90;;;;;;4998017;28;20230;-70
2023/10/03 12:38:31;;;;;;;1.73;0.60;;;18.60;99.90;;;;;;4994284;28;20253;-71
2023/10/03 12:40:58;;;;;;;1.07;0.40;;;18.40;99.90;;;;;;4998028;28;20257;-74
2023/10/03 12:43:26;;;;;;;2.27;0.60;;;18.20;99.90;;;;;;4998238;28;20210;-70
2023/10/03 12:45:53;;;;;;;1.93;0.70;;;18.20;99.90;;;;;;4997650;28;20230;-70
2023/10/03 12:48:20;;;;;;;0.97;0.53;;;18.00;99.90;;;;;;4997072;28;20194;-71
2023/10/03 12:50:50;;;;;;;1.00;0.50;;;18.10;99.90;;;;;;4997007;28;20218;-70
2023/10/03 12:53:18;;;;;;;1.03;0.50;;;18.20;99.90;;;;;;4996755;28;20215;-70
2023/10/03 12:55:46;;;;;;;1.70;0.85;;;18.10;99.90;;;;;;4997244;28;20679;-72
2023/10/03 12:58:18;;;;;;;1.63;0.67;;;18.20;99.90;;;;;;4997460;28;20735;-70
2023/10/03 13:00:47;;;;;;;2.43;0.70;;;18.10;99.90;;;;;;4994729;28;20630;-69
2023/10/03 13:03:14;;;;;;;2.05;0.88;;;18.10;99.90;;;;;;4994546;28;20243;-69
2023/10/03 13:05:40;;;;;;;1.50;0.70;;;18.10;99.90;;;;;;4994417;28;20233;-68
2023/10/03 13:08:08;;;;;;;1.70;0.80;;;18.10;99.90;;;;;;4994160;28;20214;-70
2023/10/03 13:10:38;;;;;;;2.73;1.10;;;18.10;99.90;;;;;;4994054;28;20226;-72
2023/10/03 13:13:08;;;;;;;1.40;0.70;;;18.10;99.90;;;;;;4994337;28;20220;-69
2023/10/03 13:15:35;;;;;;;2.07;0.77;;;18.10;99.90;;;;;;4993752;28;20210;-69
2023/10/03 13:18:02;;;;;;;1.63;0.80;;;18.00;99.90;;;;;;4993465;28;20245;-70
2023/10/03 13:20:29;;;;;;;2.53;0.77;;;18.10;99.90;;;;;;4992910;28;20654;-70
2023/10/03 13:22:57;;;;;;;2.13;0.80;;;18.20;99.90;;;;;;4993941;28;20637;-70
2023/10/03 13:25:24;;;;;;;1.87;1.00;;;18.30;99.90;;;;;;4994058;28;20281;-69
2023/10/03 13:27:54;;;;;;;6.30;0.70;;;18.30;99.90;;;;;;4994099;28;20619;-75
2023/10/03 13:30:26;;;;;;;1.80;0.70;;;18.30;99.90;;;;;;4993778;28;20233;-69
2023/10/03 13:32:55;;;;;;;2.27;1.17;;;18.40;99.90;;;;;;4994927;28;20663;-72
2023/10/03 13:35:23;;;;;;;3.33;1.13;;;18.60;99.90;;;;;;5003527;28;20202;-71
2023/10/03 13:37:50;;;;;;;1.33;0.65;;;18.90;99.90;;;;;;5014219;28;20244;-72
2023/10/03 13:40:18;;;;;;;5.80;1.08;;;19.10;99.90;;;;;;4994505;28;20595;-71
2023/10/03 13:42:47;;;;;;;1.83;0.85;;;19.20;99.90;;;;;;4995415;28;20213;-70
2023/10/03 13:45:17;;;;;;;2.50;1.02;;;19.20;99.90;;;;;;4995281;28;20232;-69
2023/10/03 13:47:45;;;;;;;3.72;1.10;;;19.00;99.90;;;;;;4995479;28;20213;-70
2023/10/03 13:50:12;;;;;;;2.40;1.08;;;18.80;99.90;;;;;;4995533;28;20317;-76
2023/10/03 13:52:40;;;;;;;7.10;1.10;;;18.90;99.90;;;;;;4995146;28;20219;-72
2023/10/03 13:55:09;;;;;;;2.30;0.90;;;18.80;99.90;;;;;;4995394;28;20213;-70
2023/10/03 13:57:36;;;;;;;3.28;1.20;;;18.80;99.90;;;;;;4995273;28;20675;-71
2023/10/03 14:00:06;;;;;;;2.80;0.80;;;18.70;99.90;;;;;;4995431;28;20230;-70
2023/10/03 14:02:35;;;;;;;1.97;0.90;;;18.60;99.90;;;;;;4995089;28;20210;-70
2023/10/03 14:05:04;;;;;;;3.17;1.00;;;18.60;99.90;;;;;;4994881;28;20678;-70
2023/10/03 14:07:32;;;;;;;4.13;1.30;;;18.70;99.90;;;;;;4994955;28;20548;-70
2023/10/03 14:10:00;;;;;;;3.45;1.10;;;18.60;99.90;;;;;;4994657;28;20702;-70
2023/10/03 14:12:27;;;;;;;2.28;0.98;;;18.50;99.90;;;;;;4993809;28;20206;-70
2023/10/03 14:14:55;;;;;;;2.27;1.13;;;18.50;99.90;;;;;;4995682;28;20693;-76
2023/10/03 14:17:22;;;;;;;2.53;0.90;;;18.30;99.90;;;;;;4995132;28;20527;-71
2023/10/03 14:19:50;;;;;;;2.13;0.90;;;18.30;99.90;;;;;;4994877;28;20252;-70
2023/10/03 14:22:18;;;;;;;1.90;1.00;;;18.20;99.90;;;;;;4995072;28;20260;-70
2023/10/03 14:24:45;;;;;;;3.85;1.10;;;18.20;99.90;;;;;;4994678;28;20213;-71
2023/10/03 14:27:13;;;;;;;3.60;1.00;;;18.30;99.90;;;;;;4977449;28;20505;-70
2023/10/03 14:29:42;;;;;;;2.03;1.10;;;18.40;99.90;;;;;;4994740;28;20260;-71
2023/10/03 14:32:10;;;;;;;1.98;0.85;;;18.40;99.90;;;;;;4994605;28;20293;-74
2023/10/03 14:34:37;;;;;;;2.72;1.00;;;18.50;99.90;;;;;;4994771;28;20213;-70
2023/10/03 14:37:06;;;;;;;2.63;0.90;;;18.50;99.90;;;;;;4994522;28;20210;-74
2023/10/03 14:39:33;;;;;;;1.93;0.83;;;18.50;99.90;;;;;;4994130;28;20219;-70
2023/10/03 14:42:00;;;;;;;2.15;0.85;;;18.50;99.90;;;;;;4994355;28;20211;-71
2023/10/03 14:44:27;;;;;;;1.93;0.80;;;18.50;99.90;;;;;;4994533;28;20294;-71
2023/10/03 14:46:54;;;;;;;3.77;1.10;;;18.60;99.90;;;;;;4994268;28;20699;-71
2023/10/03 14:49:21;;;;;;;2.97;1.20;;;18.70;99.90;;;;;;4994418;28;20238;-73
2023/10/03 14:51:49;;;;;;;2.03;0.75;;;18.70;99.90;;;;;;4994259;28;20238;-71
2023/10/03 14:54:18;;;;;;;2.80;1.10;;;18.80;99.90;;;;;;4994263;28;20268;-70
2023/10/03 14:56:47;;;;;;;2.53;0.73;;;18.80;99.90;;;;;;4993830;28;20630;-70
2023/10/03 14:59:15;;;;;;;2.30;0.90;;;18.70;99.90;;;;;;4994115;28;20297;-74
2023/10/03 15:01:42;;;;;;;1.75;0.70;;;18.70;99.90;;;;;;4994095;28;20198;-70
2023/10/03 15:04:10;;;;;;;5.45;1.45;;;18.80;99.90;;;;;;4993848;28;20635;-69
2023/10/03 15:06:37;;;;;;;1.98;0.95;;;18.90;99.90;;;;;;4993896;28;20736;-70
2023/10/03 15:09:07;;;;;;;3.20;0.95;;;18.70;99.90;;;;;;4994133;28;20209;-70
2023/10/03 15:11:35;;;;;;;2.43;1.00;;;18.60;99.90;;;;;;4993847;28;20230;-71
2023/10/03 15:14:03;;;;;;;2.25;0.80;;;18.30;99.90;;;;;;4994447;28;20218;-76
2023/10/03 15:16:32;;;;;;;3.87;1.10;;;18.30;99.90;;;;;;4993972;28;20297;-71
2023/10/03 15:18:59;;;;;;;1.77;0.70;;;18.20;99.90;;;;;;4995555;28;20541;-70
2023/10/03 15:21:26;;;;;;;3.87;0.80;;;18.10;99.90;;;;;;4994748;28;20309;-70
2023/10/03 15:23:54;;;;;;;2.37;0.87;;;18.10;99.90;;;;;;4994429;28;20640;-71
2023/10/03 15:26:22;;;;;;;3.13;0.87;;;18.10;99.90;;;;;;4994122;28;20230;-71
2023/10/03 15:28:51;;;;;;;2.03;1.00;;;18.10;99.90;;;;;;4993385;28;20234;-70
2023/10/03 15:31:22;;;;;;;1.23;0.70;;;18.10;99.90;;;;;;4994035;28;20320;-71
2023/10/03 15:33:49;;;;;;;2.33;1.00;;;18.10;99.90;;;;;;4993988;28;20221;-71
2023/10/03 15:36:16;;;;;;;1.40;0.60;;;18.10;99.90;;;;;;4993349;28;20757;-71
2023/10/03 15:38:43;;;;;;;2.27;0.90;;;18.10;99.90;;;;;;4993954;28;20238;-71
2023/10/03 15:41:14;;;;;;;2.87;1.07;;;18.00;99.90;;;;;;4994001;28;20261;-73
2023/10/03 15:43:41;;;;;;;2.73;1.10;;;18.00;99.90;;;;;;4993698;28;20203;-72
2023/10/03 15:46:10;;;;;;;3.07;1.27;;;18.00;99.90;;;;;;4992536;28;20253;-71
2023/10/03 15:48:37;;;;;;;3.83;0.80;;;18.10;99.90;;;;;;4992853;28;20214;-71
2023/10/03 15:51:06;;;;;;;3.40;0.90;;;18.10;99.90;;;;;;4992633;28;20583;-72
2023/10/03 15:53:37;;;;;;;3.47;1.30;;;18.10;99.90;;;;;;4992477;28;20570;-71
2023/10/03 15:56:09;;;;;;;2.70;1.00;;;18.00;99.90;;;;;;4992367;28;20237;-71
2023/10/03 15:58:36;;;;;;;1.40;0.70;;;17.90;99.90;;;;;;4992566;28;20198;-70
2023/10/03 16:01:03;;;;;;;1.90;0.80;;;17.90;99.90;;;;;;4992765;28;20313;-71
2023/10/03 16:03:32;;;;;;;2.67;0.90;;;17.90;99.90;;;;;;4990476;28;20234;-73
2023/10/03 16:05:59;;;;;;;1.83;0.90;;;17.80;99.90;;;;;;4992662;28;20582;-72
2023/10/03 16:08:29;;;;;;;2.70;1.13;;;17.80;99.90;;;;;;4992563;28;20233;-71
2023/10/03 16:10:57;;;;;;;2.53;0.87;;;17.70;99.90;;;;;;4992272;28;20560;-70
2023/10/03 16:13:23;;;;;;;1.83;0.83;;;17.70;99.90;;;;;;4992363;28;20690;-70
2023/10/03 16:15:50;;;;;;;2.90;0.80;;;17.70;99.90;;;;;;4992525;28;20229;-70
2023/10/03 16:18:17;;;;;;;1.50;0.70;;;17.70;99.90;;;;;;4992865;28;20253;-71
2023/10/03 16:20:46;;;;;;;2.33;0.85;;;17.70;99.90;;;;;;4992411;28;20254;-71
2023/10/03 16:23:13;;;;;;;3.47;1.20;;;17.60;99.90;;;;;;4990227;28;20201;-72
2023/10/03 16:25:40;;;;;;;2.60;1.23;;;17.60;99.90;;;;;;4992650;28;20297;-72
2023/10/03 16:28:07;;;;;;;3.43;0.90;;;17.60;99.90;;;;;;4993125;28;20329;-72
2023/10/03 16:30:34;;;;;;;4.07;0.97;;;17.50;99.90;;;;;;4993022;28;20231;-71
2023/10/03 16:33:01;;;;;;;3.77;1.33;;;17.60;99.90;;;;;;4993180;28;20206;-76
2023/10/03 16:35:28;;;;;;;2.73;0.97;;;17.60;99.90;;;;;;4994483;28;20700;-71
2023/10/03 16:37:58;;;;;;;3.70;1.20;;;17.60;99.90;;;;;;4997052;28;20289;-76
2023/10/03 16:40:25;;;;;;;4.63;1.33;;;17.60;99.90;;;;;;4996496;28;20226;-75
2023/10/03 16:42:53;;;;;;;2.90;1.20;;;17.50;99.90;;;;;;4996742;28;20256;-76
2023/10/03 16:45:21;;;;;;;2.27;0.73;;;17.50;99.90;;;;;;4996630;28;20261;-75
2023/10/03 16:47:50;;;;;;;2.20;0.80;;;17.50;99.90;;;;;;4996391;28;20545;-76
2023/10/03 16:50:19;;;;;;;3.57;1.10;;;17.60;99.90;;;;;;4996186;28;20226;-71
2023/10/03 16:52:47;;;;;;;2.73;0.93;;;17.50;99.90;;;;;;4995289;28;20221;-71
2023/10/03 16:55:16;;;;;;;2.40;1.00;;;17.40;99.90;;;;;;4996286;28;20265;-72
2023/10/03 16:57:44;;;;;;;3.13;0.80;;;17.30;99.90;;;;;;4995574;28;20207;-71
2023/10/03 17:00:13;;;;;;;1.93;0.90;;;17.30;99.90;;;;;;4991731;28;20534;-73
2023/10/03 17:02:40;;;;;;;3.20;1.07;;;17.30;99.90;;;;;;4983439;28;20255;-71
2023/10/03 17:05:09;;;;;;;1.53;0.80;;;17.20;99.90;;;;;;4987779;28;20223;-71
2023/10/03 17:07:37;;;;;;;1.80;0.90;;;17.10;99.90;;;;;;4985879;28;20232;-72
2023/10/03 17:10:04;;;;;;;3.17;0.90;;;17.00;99.90;;;;;;4988217;28;20250;-70
2023/10/03 17:12:33;;;;;;;3.70;0.90;;;17.00;99.90;;;;;;4989525;28;20248;-69
2023/10/03 17:15:00;;;;;;;1.80;0.80;;;17.00;99.90;;;;;;4987675;28;20207;-71
2023/10/03 17:17:27;;;;;;;2.30;0.90;;;17.10;99.90;;;;;;4986500;28;20261;-71
2023/10/03 17:19:55;;;;;;;3.57;0.97;;;17.00;99.90;;;;;;4993134;28;20725;-70
2023/10/03 17:22:22;;;;;;;2.90;1.03;;;16.90;99.90;;;;;;4995886;28;20297;-71
2023/10/03 17:24:49;;;;;;;2.10;0.87;;;16.90;99.90;;;;;;4995928;28;20293;-69
2023/10/03 17:27:16;;;;;;;2.40;1.13;;;16.80;99.90;;;;;;4996062;28;20262;-74
2023/10/03 17:29:44;;;;;;;2.33;1.10;;;16.80;99.90;;;;;;4995843;28;20261;-70
2023/10/03 17:32:12;;;;;;;1.77;0.80;;;16.70;99.90;;;;;;4995796;28;20293;-71
2023/10/03 17:34:40;;;;;;;1.63;0.70;;;16.70;99.90;;;;;;4995915;28;20261;-71
2023/10/03 17:37:08;;;;;;;2.33;1.00;;;16.70;99.90;;;;;;5007670;28;20273;-70
2023/10/03 17:39:36;;;;;;;3.30;1.40;;;16.60;99.90;;;;;;5014695;28;20261;-69
2023/10/03 17:42:05;;;;;;;4.23;1.67;;;16.50;99.90;;;;;;5014885;28;20207;-69
2023/10/03 17:44:33;;;;;;;1.27;0.83;;;16.50;99.90;;;;;;5014366;28;20710;-70
2023/10/03 17:47:02;;;;;;;3.60;1.20;;;16.40;99.90;;;;;;5015591;28;20694;-72
2023/10/03 17:49:29;;;;;;;1.73;0.83;;;16.30;99.90;;;;;;4996035;28;20292;-71
2023/10/03 17:51:56;;;;;;;4.03;1.17;;;16.30;99.90;;;;;;4995498;28;20216;-70
2023/10/03 17:54:23;;;;;;;2.63;1.00;;;16.30;99.90;;;;;;4995327;28;20256;-72
2023/10/03 17:56:50;;;;;;;1.83;0.80;;;16.30;99.90;;;;;;4995267;28;20701;-69
2023/10/03 17:59:18;;;;;;;1.77;0.80;;;16.30;99.90;;;;;;4995024;28;20207;-72
2023/10/03 18:01:45;;;;;;;2.33;0.90;;;16.30;99.90;;;;;;4995195;28;20734;-70
2023/10/03 18:04:14;;;;;;;3.37;0.90;;;16.30;99.90;;;;;;4995144;28;20777;-70
2023/10/03 18:06:41;;;;;;;2.60;0.90;;;16.20;99.90;;;;;;4995119;28;20313;-71
2023/10/03 18:09:11;;;;;;;2.97;1.07;;;16.10;99.90;;;;;;4995204;28;20253;-70
2023/10/03 18:11:38;;;;;;;3.40;0.80;;;16.20;99.90;;;;;;4994898;28;20571;-71
2023/10/03 18:14:05;;;;;;;3.50;1.40;;;16.10;99.90;;;;;;4993524;28;20246;-70
2023/10/03 18:16:32;;;;;;;3.70;1.03;;;16.00;99.90;;;;;;4993665;28;20293;-70
2023/10/03 18:18:59;;;;;;;3.97;1.97;;;16.00;99.90;;;;;;4994224;28;20296;-69
2023/10/03 18:21:29;;;;;;;2.97;1.10;;;16.00;99.90;;;;;;4994709;28;20261;-69
2023/10/03 18:23:56;;;;;;;4.70;1.13;;;15.90;99.90;;;;;;4994276;28;20249;-71
2023/10/03 18:26:23;;;;;;;2.23;0.90;;;15.90;99.90;;;;;;4993634;28;20237;-70
2023/10/03 18:28:50;;;;;;;3.80;0.80;;;15.90;99.90;;;;;;4994076;28;20277;-70
2023/10/03 18:31:18;;;;;;;2.87;1.07;;;15.80;99.90;;;;;;4994102;28;20313;-71
2023/10/03 18:33:45;;;;;;;2.10;1.00;;;15.80;99.90;;;;;;4993539;28;20217;-72
2023/10/03 18:36:18;;;;;;;1.57;0.90;;;15.80;99.90;;;;;;4993900;28;20293;-70
2023/10/03 18:38:46;;;;;;;3.00;0.80;;;15.80;99.90;;;;;;4994124;28;20232;-74
2023/10/03 18:41:13;;;;;;;2.17;0.80;;;15.70;99.90;;;;;;4994050;28;20298;-72
2023/10/03 18:43:42;;;;;;;1.70;1.00;;;15.70;99.90;;;;;;4994012;28;20257;-71
2023/10/03 18:46:10;;;;;;;2.53;0.90;;;15.70;99.90;;;;;;4993149;28;20689;-72
2023/10/03 18:48:37;;;;;;;5.20;1.10;;;15.70;99.90;;;;;;4992205;28;20321;-70
2023/10/03 18:51:05;;;;;;;1.70;0.70;;;15.70;99.90;;;;;;4993646;28;20269;-69
2023/10/03 18:53:33;;;;;;;1.90;0.80;;;15.60;99.90;;;;;;4993938;28;20250;-70
2023/10/03 18:56:01;;;;;;;3.03;0.67;;;15.60;99.90;;;;;;4993450;28;20297;-70
2023/10/03 18:58:28;;;;;;;1.83;0.70;;;15.70;99.90;;;;;;4992633;28;20293;-71
2023/10/03 19:00:57;;;;;;;1.07;0.60;;;15.70;99.90;;;;;;4993004;28;20221;-72
2023/10/03 19:03:26;;;;;;;1.87;0.70;;;15.70;99.90;;;;;;4992873;28;20202;-75
2023/10/03 19:05:52;;;;;;;1.87;0.80;;;15.70;99.90;;;;;;4992968;28;20202;-69
2023/10/03 19:08:19;;;;;;;3.87;0.80;;;15.70;99.90;;;;;;4992674;28;20321;-73
2023/10/03 19:10:49;;;;;;;1.83;0.50;;;15.60;99.90;;;;;;4993390;28;20269;-71
2023/10/03 19:13:17;;;;;;;2.03;0.77;;;15.50;99.90;;;;;;4994000;28;20206;-74
2023/10/03 19:15:47;;;;;;;1.63;0.60;;;15.50;99.90;;;;;;4994081;28;20214;-72
2023/10/03 19:18:14;;;;;;;2.60;1.17;;;15.60;99.90;;;;;;4993039;28;20313;-75
2023/10/03 19:20:41;;;;;;;7.10;3.60;;;15.60;99.90;;;;;;4993718;28;20230;-73
2023/10/03 19:23:08;;;;;;;3.97;0.60;;;15.60;99.90;;;;;;4993613;28;20285;-72
2023/10/03 19:25:35;;;;;;;1.87;0.70;;;15.60;99.90;;;;;;4992793;28;20564;-69
2023/10/03 19:28:02;;;;;;;3.23;0.90;;;15.50;99.90;;;;;;4990116;28;20337;-72
2023/10/03 19:30:31;;;;;;;3.03;0.63;;;15.50;99.90;;;;;;4992702;28;20328;-72
2023/10/03 19:32:57;;;;;;;1.47;0.70;;;15.50;99.90;;;;;;4992393;28;20206;-72
2023/10/03 19:35:24;;;;;;;3.37;0.80;;;15.40;99.90;;;;;;4993504;28;20406;-73
2023/10/03 19:37:53;;;;;;;3.80;0.70;;;15.30;99.90;;;;;;4993178;28;20306;-71
2023/10/03 19:40:20;;;;;;;1.17;0.60;;;15.30;99.90;;;;;;4993319;28;20757;-71
2023/10/03 19:42:47;;;;;;;2.77;0.73;;;15.30;99.90;;;;;;4992939;28;20241;-73
2023/10/03 19:45:14;;;;;;;3.93;0.53;;;15.40;99.90;;;;;;4993184;28;20296;-71
2023/10/03 19:47:44;;;;;;;1.93;0.60;;;15.30;99.90;;;;;;4993889;28;20270;-71